sensor_id;sensor_type;location;lat;lon;timestamp;P1;durP1;ratioP1;P2;durP2;ratioP2
78563;SDS011;67856;47.754;19.088;2023-05-27T00:02:52;7.70;;;5.60;;
78563;SDS011;67856;47.754;19.088;2023-05-27T00:05:55;8.30;;;6.03;;
78563;SDS011;67856;47.754;19.088;2023-05-27T00:08:57;8.10;;;5.90;;
78563;SDS011;67856;47.754;19.088;2023-05-27T00:12:00;6.80;;;5.60;;
78563;SDS011;67856;47.754;19.088;2023-05-27T00:15:02;7.18;;;5.70;;
78563;SDS011;67856;47.754;19.088;2023-05-27T00:18:05;7.72;;;5.50;;
78563;SDS011;67856;47.754;19.088;2023-05-27T00:21:08;8.23;;;5.70;;
78563;SDS011;67856;47.754;19.088;2023-05-27T00:24:11;7.70;;;5.67;;
78563;SDS011;67856;47.754;19.088;2023-05-27T00:27:13;6.50;;;5.60;;
78563;SDS011;67856;47.754;19.088;2023-05-27T00:30:15;7.15;;;5.90;;
78563;SDS011;67856;47.754;19.088;2023-05-27T00:33:18;7.40;;;5.43;;
78563;SDS011;67856;47.754;19.088;2023-05-27T00:36:21;8.85;;;5.80;;
78563;SDS011;67856;47.754;19.088;2023-05-27T00:39:23;6.73;;;5.90;;
78563;SDS011;67856;47.754;19.088;2023-05-27T00:42:26;6.87;;;5.67;;
78563;SDS011;67856;47.754;19.088;2023-05-27T00:45:28;6.90;;;5.60;;
78563;SDS011;67856;47.754;19.088;2023-05-27T00:48:31;7.68;;;5.82;;
78563;SDS011;67856;47.754;19.088;2023-05-27T00:51:33;7.35;;;5.57;;
78563;SDS011;67856;47.754;19.088;2023-05-27T00:54:36;6.60;;;5.37;;
78563;SDS011;67856;47.754;19.088;2023-05-27T00:57:38;6.93;;;5.60;;
78563;SDS011;67856;47.754;19.088;2023-05-27T01:00:41;7.75;;;6.07;;
78563;SDS011;67856;47.754;19.088;2023-05-27T01:03:44;6.97;;;5.45;;
78563;SDS011;67856;47.754;19.088;2023-05-27T01:07:10;6.45;;;5.43;;
78563;SDS011;67856;47.754;19.088;2023-05-27T01:10:38;6.53;;;5.30;;
78563;SDS011;67856;47.754;19.088;2023-05-27T01:13:55;7.27;;;5.60;;
78563;SDS011;67856;47.754;19.088;2023-05-27T01:17:01;6.63;;;5.63;;
78563;SDS011;67856;47.754;19.088;2023-05-27T01:20:05;7.13;;;5.30;;
78563;SDS011;67856;47.754;19.088;2023-05-27T01:23:09;7.60;;;5.78;;
78563;SDS011;67856;47.754;19.088;2023-05-27T01:26:12;6.57;;;5.33;;
78563;SDS011;67856;47.754;19.088;2023-05-27T01:29:14;6.43;;;5.27;;
78563;SDS011;67856;47.754;19.088;2023-05-27T01:32:21;6.88;;;5.72;;
78563;SDS011;67856;47.754;19.088;2023-05-27T01:35:45;6.25;;;5.50;;
78563;SDS011;67856;47.754;19.088;2023-05-27T01:38:49;7.28;;;5.75;;
78563;SDS011;67856;47.754;19.088;2023-05-27T01:41:54;7.13;;;5.30;;
78563;SDS011;67856;47.754;19.088;2023-05-27T01:44:59;7.53;;;5.70;;
78563;SDS011;67856;47.754;19.088;2023-05-27T01:48:02;6.95;;;5.38;;
78563;SDS011;67856;47.754;19.088;2023-05-27T01:51:05;6.25;;;5.03;;
78563;SDS011;67856;47.754;19.088;2023-05-27T01:54:08;6.63;;;5.60;;
78563;SDS011;67856;47.754;19.088;2023-05-27T01:57:10;6.33;;;5.30;;
78563;SDS011;67856;47.754;19.088;2023-05-27T02:00:14;6.27;;;5.17;;
78563;SDS011;67856;47.754;19.088;2023-05-27T02:03:17;6.32;;;5.20;;
78563;SDS011;67856;47.754;19.088;2023-05-27T02:06:20;6.18;;;5.50;;
78563;SDS011;67856;47.754;19.088;2023-05-27T02:09:22;6.63;;;5.35;;
78563;SDS011;67856;47.754;19.088;2023-05-27T02:12:25;6.77;;;5.73;;
78563;SDS011;67856;47.754;19.088;2023-05-27T02:15:28;6.40;;;5.57;;
78563;SDS011;67856;47.754;19.088;2023-05-27T02:18:32;8.05;;;5.82;;
78563;SDS011;67856;47.754;19.088;2023-05-27T02:21:35;6.97;;;5.47;;
78563;SDS011;67856;47.754;19.088;2023-05-27T02:24:37;6.95;;;5.57;;
78563;SDS011;67856;47.754;19.088;2023-05-27T02:27:42;6.10;;;5.37;;
78563;SDS011;67856;47.754;19.088;2023-05-27T02:30:49;6.37;;;5.27;;
78563;SDS011;67856;47.754;19.088;2023-05-27T02:33:52;6.15;;;5.00;;
78563;SDS011;67856;47.754;19.088;2023-05-27T02:36:54;6.18;;;5.10;;
78563;SDS011;67856;47.754;19.088;2023-05-27T02:39:57;5.72;;;5.03;;
78563;SDS011;67856;47.754;19.088;2023-05-27T02:42:59;7.13;;;5.00;;
78563;SDS011;67856;47.754;19.088;2023-05-27T02:46:05;6.80;;;5.53;;
78563;SDS011;67856;47.754;19.088;2023-05-27T02:49:07;6.65;;;5.28;;
78563;SDS011;67856;47.754;19.088;2023-05-27T02:52:14;6.93;;;5.50;;
78563;SDS011;67856;47.754;19.088;2023-05-27T02:55:17;6.18;;;5.30;;
78563;SDS011;67856;47.754;19.088;2023-05-27T02:58:20;5.87;;;5.00;;
78563;SDS011;67856;47.754;19.088;2023-05-27T03:01:23;6.47;;;5.17;;
78563;SDS011;67856;47.754;19.088;2023-05-27T03:04:27;6.07;;;5.18;;
78563;SDS011;67856;47.754;19.088;2023-05-27T03:07:30;6.90;;;5.22;;
78563;SDS011;67856;47.754;19.088;2023-05-27T03:10:33;6.45;;;5.35;;
78563;SDS011;67856;47.754;19.088;2023-05-27T03:13:36;6.27;;;5.33;;
78563;SDS011;67856;47.754;19.088;2023-05-27T03:16:39;7.07;;;5.47;;
78563;SDS011;67856;47.754;19.088;2023-05-27T03:19:41;6.70;;;5.70;;
78563;SDS011;67856;47.754;19.088;2023-05-27T03:22:44;5.75;;;5.13;;
78563;SDS011;67856;47.754;19.088;2023-05-27T03:25:47;6.22;;;5.40;;
78563;SDS011;67856;47.754;19.088;2023-05-27T03:28:50;6.63;;;5.27;;
78563;SDS011;67856;47.754;19.088;2023-05-27T03:31:53;5.90;;;5.30;;
78563;SDS011;67856;47.754;19.088;2023-05-27T03:34:56;6.45;;;5.22;;
78563;SDS011;67856;47.754;19.088;2023-05-27T03:37:59;5.72;;;4.78;;
78563;SDS011;67856;47.754;19.088;2023-05-27T03:41:01;6.68;;;5.30;;
78563;SDS011;67856;47.754;19.088;2023-05-27T03:44:04;5.97;;;5.03;;
78563;SDS011;67856;47.754;19.088;2023-05-27T03:47:07;6.73;;;5.50;;
78563;SDS011;67856;47.754;19.088;2023-05-27T03:50:09;6.53;;;5.10;;
78563;SDS011;67856;47.754;19.088;2023-05-27T03:53:12;6.45;;;5.40;;
78563;SDS011;67856;47.754;19.088;2023-05-27T03:56:17;5.88;;;5.00;;
78563;SDS011;67856;47.754;19.088;2023-05-27T03:59:19;5.30;;;4.47;;
78563;SDS011;67856;47.754;19.088;2023-05-27T04:02:24;6.57;;;5.10;;
78563;SDS011;67856;47.754;19.088;2023-05-27T04:05:27;6.30;;;5.10;;
78563;SDS011;67856;47.754;19.088;2023-05-27T04:08:29;5.70;;;5.10;;
78563;SDS011;67856;47.754;19.088;2023-05-27T04:11:32;6.72;;;5.32;;
78563;SDS011;67856;47.754;19.088;2023-05-27T04:14:35;6.10;;;5.10;;
78563;SDS011;67856;47.754;19.088;2023-05-27T04:17:40;6.10;;;5.07;;
78563;SDS011;67856;47.754;19.088;2023-05-27T04:20:43;5.97;;;4.97;;
78563;SDS011;67856;47.754;19.088;2023-05-27T04:23:47;5.65;;;4.72;;
78563;SDS011;67856;47.754;19.088;2023-05-27T04:26:50;5.75;;;5.03;;
78563;SDS011;67856;47.754;19.088;2023-05-27T04:29:53;5.53;;;4.77;;
78563;SDS011;67856;47.754;19.088;2023-05-27T04:32:55;6.37;;;4.97;;
78563;SDS011;67856;47.754;19.088;2023-05-27T04:35:58;6.85;;;4.68;;
78563;SDS011;67856;47.754;19.088;2023-05-27T04:39:05;5.65;;;4.50;;
78563;SDS011;67856;47.754;19.088;2023-05-27T04:42:09;5.82;;;4.93;;
78563;SDS011;67856;47.754;19.088;2023-05-27T04:45:16;5.47;;;4.83;;
78563;SDS011;67856;47.754;19.088;2023-05-27T04:48:18;5.93;;;5.10;;
78563;SDS011;67856;47.754;19.088;2023-05-27T04:51:25;6.13;;;4.88;;
78563;SDS011;67856;47.754;19.088;2023-05-27T04:54:27;6.70;;;5.10;;
78563;SDS011;67856;47.754;19.088;2023-05-27T04:57:32;6.07;;;4.82;;
78563;SDS011;67856;47.754;19.088;2023-05-27T05:00:36;5.27;;;4.60;;
78563;SDS011;67856;47.754;19.088;2023-05-27T05:03:56;6.10;;;5.00;;
78563;SDS011;67856;47.754;19.088;2023-05-27T05:07:25;5.95;;;5.20;;
78563;SDS011;67856;47.754;19.088;2023-05-27T05:10:29;6.20;;;4.68;;
78563;SDS011;67856;47.754;19.088;2023-05-27T05:13:33;5.70;;;4.95;;
78563;SDS011;67856;47.754;19.088;2023-05-27T05:16:35;5.73;;;4.90;;
78563;SDS011;67856;47.754;19.088;2023-05-27T05:19:38;5.57;;;5.00;;
78563;SDS011;67856;47.754;19.088;2023-05-27T05:22:41;5.30;;;4.78;;
78563;SDS011;67856;47.754;19.088;2023-05-27T05:25:45;6.43;;;5.18;;
78563;SDS011;67856;47.754;19.088;2023-05-27T05:28:49;5.63;;;4.90;;
78563;SDS011;67856;47.754;19.088;2023-05-27T05:31:51;6.00;;;4.90;;
78563;SDS011;67856;47.754;19.088;2023-05-27T05:34:56;5.70;;;4.90;;
78563;SDS011;67856;47.754;19.088;2023-05-27T05:38:00;6.50;;;5.00;;
78563;SDS011;67856;47.754;19.088;2023-05-27T05:41:02;7.15;;;4.90;;
78563;SDS011;67856;47.754;19.088;2023-05-27T05:44:09;5.03;;;4.47;;
78563;SDS011;67856;47.754;19.088;2023-05-27T05:47:13;5.53;;;4.73;;
78563;SDS011;67856;47.754;19.088;2023-05-27T05:50:26;5.23;;;4.67;;
78563;SDS011;67856;47.754;19.088;2023-05-27T05:53:30;5.65;;;4.82;;
78563;SDS011;67856;47.754;19.088;2023-05-27T05:56:34;5.10;;;4.25;;
78563;SDS011;67856;47.754;19.088;2023-05-27T05:59:37;5.45;;;4.70;;
78563;SDS011;67856;47.754;19.088;2023-05-27T06:02:39;6.93;;;4.60;;
78563;SDS011;67856;47.754;19.088;2023-05-27T06:05:45;5.20;;;4.60;;
78563;SDS011;67856;47.754;19.088;2023-05-27T06:08:48;6.05;;;4.72;;
78563;SDS011;67856;47.754;19.088;2023-05-27T06:11:51;5.15;;;4.57;;
78563;SDS011;67856;47.754;19.088;2023-05-27T06:14:54;5.57;;;4.65;;
78563;SDS011;67856;47.754;19.088;2023-05-27T06:18:04;5.60;;;4.67;;
78563;SDS011;67856;47.754;19.088;2023-05-27T06:21:07;5.00;;;4.50;;
78563;SDS011;67856;47.754;19.088;2023-05-27T06:24:29;5.00;;;4.32;;
78563;SDS011;67856;47.754;19.088;2023-05-27T06:27:50;5.25;;;4.75;;
78563;SDS011;67856;47.754;19.088;2023-05-27T06:30:53;5.10;;;4.60;;
78563;SDS011;67856;47.754;19.088;2023-05-27T06:33:56;5.30;;;4.67;;
78563;SDS011;67856;47.754;19.088;2023-05-27T06:36:58;5.10;;;4.47;;
78563;SDS011;67856;47.754;19.088;2023-05-27T06:40:01;5.07;;;4.40;;
78563;SDS011;67856;47.754;19.088;2023-05-27T06:43:03;5.30;;;4.57;;
78563;SDS011;67856;47.754;19.088;2023-05-27T06:46:25;5.82;;;4.78;;
78563;SDS011;67856;47.754;19.088;2023-05-27T06:49:35;5.23;;;4.40;;
78563;SDS011;67856;47.754;19.088;2023-05-27T06:52:40;5.23;;;4.60;;
78563;SDS011;67856;47.754;19.088;2023-05-27T06:56:00;4.55;;;4.13;;
78563;SDS011;67856;47.754;19.088;2023-05-27T06:59:21;4.63;;;4.07;;
78563;SDS011;67856;47.754;19.088;2023-05-27T07:02:23;4.75;;;4.05;;
78563;SDS011;67856;47.754;19.088;2023-05-27T07:05:29;5.93;;;4.70;;
78563;SDS011;67856;47.754;19.088;2023-05-27T07:08:31;5.33;;;4.50;;
78563;SDS011;67856;47.754;19.088;2023-05-27T07:11:45;5.38;;;4.70;;
78563;SDS011;67856;47.754;19.088;2023-05-27T07:15:08;5.13;;;4.53;;
78563;SDS011;67856;47.754;19.088;2023-05-27T07:18:12;5.65;;;4.82;;
78563;SDS011;67856;47.754;19.088;2023-05-27T07:21:15;6.77;;;4.67;;
78563;SDS011;67856;47.754;19.088;2023-05-27T07:24:18;4.43;;;4.03;;
78563;SDS011;67856;47.754;19.088;2023-05-27T07:27:21;6.15;;;4.32;;
78563;SDS011;67856;47.754;19.088;2023-05-27T07:30:31;4.55;;;4.10;;
78563;SDS011;67856;47.754;19.088;2023-05-27T07:33:36;5.30;;;4.55;;
78563;SDS011;67856;47.754;19.088;2023-05-27T07:36:38;4.80;;;4.30;;
78563;SDS011;67856;47.754;19.088;2023-05-27T07:39:42;4.80;;;4.30;;
78563;SDS011;67856;47.754;19.088;2023-05-27T07:42:50;5.00;;;4.50;;
78563;SDS011;67856;47.754;19.088;2023-05-27T07:45:54;5.00;;;4.18;;
78563;SDS011;67856;47.754;19.088;2023-05-27T07:48:57;5.70;;;4.30;;
78563;SDS011;67856;47.754;19.088;2023-05-27T07:52:01;5.33;;;4.37;;
78563;SDS011;67856;47.754;19.088;2023-05-27T07:55:03;5.10;;;4.17;;
78563;SDS011;67856;47.754;19.088;2023-05-27T07:58:07;4.72;;;3.95;;
78563;SDS011;67856;47.754;19.088;2023-05-27T08:01:23;4.93;;;4.18;;
78563;SDS011;67856;47.754;19.088;2023-05-27T08:04:29;4.97;;;4.25;;
78563;SDS011;67856;47.754;19.088;2023-05-27T08:07:43;5.50;;;4.50;;
78563;SDS011;67856;47.754;19.088;2023-05-27T08:10:57;4.10;;;3.70;;
78563;SDS011;67856;47.754;19.088;2023-05-27T08:14:20;4.43;;;4.00;;
78563;SDS011;67856;47.754;19.088;2023-05-27T08:17:41;4.88;;;3.90;;
78563;SDS011;67856;47.754;19.088;2023-05-27T08:20:48;4.43;;;4.03;;
78563;SDS011;67856;47.754;19.088;2023-05-27T08:24:24;4.90;;;4.10;;
78563;SDS011;67856;47.754;19.088;2023-05-27T08:27:51;4.80;;;4.07;;
78563;SDS011;67856;47.754;19.088;2023-05-27T08:31:24;5.18;;;3.75;;
78563;SDS011;67856;47.754;19.088;2023-05-27T08:34:33;4.45;;;4.05;;
78563;SDS011;67856;47.754;19.088;2023-05-27T08:37:36;4.55;;;4.05;;
78563;SDS011;67856;47.754;19.088;2023-05-27T08:40:40;4.97;;;4.20;;
78563;SDS011;67856;47.754;19.088;2023-05-27T08:43:43;4.87;;;4.00;;
78563;SDS011;67856;47.754;19.088;2023-05-27T08:46:48;4.68;;;4.13;;
78563;SDS011;67856;47.754;19.088;2023-05-27T08:49:53;4.10;;;3.70;;
78563;SDS011;67856;47.754;19.088;2023-05-27T08:52:55;4.68;;;4.10;;
78563;SDS011;67856;47.754;19.088;2023-05-27T08:56:00;5.00;;;4.20;;
78563;SDS011;67856;47.754;19.088;2023-05-27T08:59:07;5.23;;;4.30;;
78563;SDS011;67856;47.754;19.088;2023-05-27T09:02:13;4.75;;;4.18;;
78563;SDS011;67856;47.754;19.088;2023-05-27T09:05:16;4.68;;;4.20;;
78563;SDS011;67856;47.754;19.088;2023-05-27T09:08:20;4.57;;;4.10;;
78563;SDS011;67856;47.754;19.088;2023-05-27T09:11:23;4.70;;;4.10;;
78563;SDS011;67856;47.754;19.088;2023-05-27T09:14:27;4.77;;;4.27;;
78563;SDS011;67856;47.754;19.088;2023-05-27T09:17:30;5.05;;;3.92;;
78563;SDS011;67856;47.754;19.088;2023-05-27T09:20:33;4.43;;;3.80;;
78563;SDS011;67856;47.754;19.088;2023-05-27T09:23:36;4.88;;;4.07;;
78563;SDS011;67856;47.754;19.088;2023-05-27T09:26:42;6.00;;;4.10;;
78563;SDS011;67856;47.754;19.088;2023-05-27T09:29:45;4.77;;;4.10;;
78563;SDS011;67856;47.754;19.088;2023-05-27T09:32:48;4.78;;;3.95;;
78563;SDS011;67856;47.754;19.088;2023-05-27T09:35:51;4.57;;;4.07;;
78563;SDS011;67856;47.754;19.088;2023-05-27T09:38:53;5.72;;;4.30;;
78563;SDS011;67856;47.754;19.088;2023-05-27T09:41:56;4.37;;;3.97;;
78563;SDS011;67856;47.754;19.088;2023-05-27T09:45:02;4.67;;;4.00;;
78563;SDS011;67856;47.754;19.088;2023-05-27T09:48:12;4.75;;;4.03;;
78563;SDS011;67856;47.754;19.088;2023-05-27T09:51:15;5.03;;;4.00;;
78563;SDS011;67856;47.754;19.088;2023-05-27T09:54:18;4.70;;;4.20;;
78563;SDS011;67856;47.754;19.088;2023-05-27T09:57:24;4.87;;;4.23;;
78563;SDS011;67856;47.754;19.088;2023-05-27T10:00:27;4.57;;;4.10;;
78563;SDS011;67856;47.754;19.088;2023-05-27T10:03:32;5.18;;;4.40;;
78563;SDS011;67856;47.754;19.088;2023-05-27T10:06:34;4.57;;;4.07;;
78563;SDS011;67856;47.754;19.088;2023-05-27T10:09:38;4.20;;;3.80;;
78563;SDS011;67856;47.754;19.088;2023-05-27T10:12:42;4.40;;;4.00;;
78563;SDS011;67856;47.754;19.088;2023-05-27T10:15:46;5.20;;;3.80;;
78563;SDS011;67856;47.754;19.088;2023-05-27T10:18:53;4.22;;;3.83;;
78563;SDS011;67856;47.754;19.088;2023-05-27T10:22:06;4.15;;;3.75;;
78563;SDS011;67856;47.754;19.088;2023-05-27T10:25:11;4.65;;;3.95;;
78563;SDS011;67856;47.754;19.088;2023-05-27T10:28:34;4.50;;;3.83;;
78563;SDS011;67856;47.754;19.088;2023-05-27T10:31:45;4.90;;;4.20;;
78563;SDS011;67856;47.754;19.088;2023-05-27T10:34:55;4.65;;;4.15;;
78563;SDS011;67856;47.754;19.088;2023-05-27T10:38:01;4.90;;;3.97;;
78563;SDS011;67856;47.754;19.088;2023-05-27T10:41:05;4.07;;;3.67;;
78563;SDS011;67856;47.754;19.088;2023-05-27T10:44:08;4.13;;;3.73;;
78563;SDS011;67856;47.754;19.088;2023-05-27T10:47:12;4.20;;;3.80;;
78563;SDS011;67856;47.754;19.088;2023-05-27T10:50:18;5.38;;;4.03;;
78563;SDS011;67856;47.754;19.088;2023-05-27T10:53:20;4.80;;;4.20;;
78563;SDS011;67856;47.754;19.088;2023-05-27T10:56:23;4.10;;;3.70;;
78563;SDS011;67856;47.754;19.088;2023-05-27T10:59:29;4.67;;;3.80;;
78563;SDS011;67856;47.754;19.088;2023-05-27T11:02:44;4.63;;;3.97;;
78563;SDS011;67856;47.754;19.088;2023-05-27T11:05:58;4.35;;;3.95;;
78563;SDS011;67856;47.754;19.088;2023-05-27T11:09:05;4.53;;;3.70;;
78563;SDS011;67856;47.754;19.088;2023-05-27T11:12:07;4.55;;;3.90;;
78563;SDS011;67856;47.754;19.088;2023-05-27T11:15:12;4.27;;;3.87;;
78563;SDS011;67856;47.754;19.088;2023-05-27T11:18:15;4.47;;;3.87;;
78563;SDS011;67856;47.754;19.088;2023-05-27T11:21:18;4.88;;;3.95;;
78563;SDS011;67856;47.754;19.088;2023-05-27T11:24:23;4.07;;;3.40;;
78563;SDS011;67856;47.754;19.088;2023-05-27T11:27:35;4.65;;;3.70;;
78563;SDS011;67856;47.754;19.088;2023-05-27T11:30:39;4.20;;;3.77;;
78563;SDS011;67856;47.754;19.088;2023-05-27T11:33:41;4.20;;;3.80;;
78563;SDS011;67856;47.754;19.088;2023-05-27T11:36:50;4.57;;;3.83;;
78563;SDS011;67856;47.754;19.088;2023-05-27T11:39:53;4.40;;;4.00;;
78563;SDS011;67856;47.754;19.088;2023-05-27T11:42:59;4.40;;;4.00;;
78563;SDS011;67856;47.754;19.088;2023-05-27T11:46:03;4.97;;;3.53;;
78563;SDS011;67856;47.754;19.088;2023-05-27T11:49:06;4.33;;;3.60;;
78563;SDS011;67856;47.754;19.088;2023-05-27T11:52:10;4.72;;;3.90;;
78563;SDS011;67856;47.754;19.088;2023-05-27T11:55:16;4.18;;;3.72;;
78563;SDS011;67856;47.754;19.088;2023-05-27T11:58:19;3.88;;;3.45;;
78563;SDS011;67856;47.754;19.088;2023-05-27T12:01:21;4.00;;;3.50;;
78563;SDS011;67856;47.754;19.088;2023-05-27T12:04:24;4.53;;;3.83;;
78563;SDS011;67856;47.754;19.088;2023-05-27T12:07:27;4.45;;;3.67;;
78563;SDS011;67856;47.754;19.088;2023-05-27T12:10:29;4.40;;;3.70;;
78563;SDS011;67856;47.754;19.088;2023-05-27T12:13:32;4.03;;;3.53;;
78563;SDS011;67856;47.754;19.088;2023-05-27T12:16:35;4.38;;;3.63;;
78563;SDS011;67856;47.754;19.088;2023-05-27T12:19:38;4.87;;;3.80;;
78563;SDS011;67856;47.754;19.088;2023-05-27T12:22:40;3.90;;;3.50;;
78563;SDS011;67856;47.754;19.088;2023-05-27T12:25:42;4.53;;;3.80;;
78563;SDS011;67856;47.754;19.088;2023-05-27T12:28:45;4.07;;;3.58;;
78563;SDS011;67856;47.754;19.088;2023-05-27T12:31:47;3.87;;;3.47;;
78563;SDS011;67856;47.754;19.088;2023-05-27T12:34:50;3.77;;;3.37;;
78563;SDS011;67856;47.754;19.088;2023-05-27T12:37:52;3.60;;;3.25;;
78563;SDS011;67856;47.754;19.088;2023-05-27T12:40:55;4.10;;;3.38;;
78563;SDS011;67856;47.754;19.088;2023-05-27T12:43:58;5.43;;;4.05;;
78563;SDS011;67856;47.754;19.088;2023-05-27T12:47:01;3.67;;;3.30;;
78563;SDS011;67856;47.754;19.088;2023-05-27T12:50:04;4.33;;;3.53;;
78563;SDS011;67856;47.754;19.088;2023-05-27T12:53:07;4.57;;;4.05;;
78563;SDS011;67856;47.754;19.088;2023-05-27T12:56:10;3.90;;;3.50;;
78563;SDS011;67856;47.754;19.088;2023-05-27T12:59:13;3.97;;;3.58;;
78563;SDS011;67856;47.754;19.088;2023-05-27T13:02:15;4.80;;;4.03;;
78563;SDS011;67856;47.754;19.088;2023-05-27T13:05:18;4.67;;;3.63;;
78563;SDS011;67856;47.754;19.088;2023-05-27T13:08:20;4.30;;;3.90;;
78563;SDS011;67856;47.754;19.088;2023-05-27T13:11:23;4.40;;;3.75;;
78563;SDS011;67856;47.754;19.088;2023-05-27T13:14:25;4.53;;;4.00;;
78563;SDS011;67856;47.754;19.088;2023-05-27T13:17:30;4.13;;;3.60;;
78563;SDS011;67856;47.754;19.088;2023-05-27T13:20:33;4.00;;;3.60;;
78563;SDS011;67856;47.754;19.088;2023-05-27T13:23:35;3.90;;;3.50;;
78563;SDS011;67856;47.754;19.088;2023-05-27T13:26:38;3.60;;;3.25;;
78563;SDS011;67856;47.754;19.088;2023-05-27T13:29:40;3.97;;;3.58;;
78563;SDS011;67856;47.754;19.088;2023-05-27T13:32:43;3.97;;;3.40;;
78563;SDS011;67856;47.754;19.088;2023-05-27T13:35:46;4.40;;;3.67;;
78563;SDS011;67856;47.754;19.088;2023-05-27T13:38:53;4.47;;;3.70;;
78563;SDS011;67856;47.754;19.088;2023-05-27T13:41:55;4.35;;;3.75;;
78563;SDS011;67856;47.754;19.088;2023-05-27T13:44:58;4.40;;;3.60;;
78563;SDS011;67856;47.754;19.088;2023-05-27T13:48:00;4.13;;;3.63;;
78563;SDS011;67856;47.754;19.088;2023-05-27T13:51:03;4.30;;;3.90;;
78563;SDS011;67856;47.754;19.088;2023-05-27T13:54:06;4.32;;;3.80;;
78563;SDS011;67856;47.754;19.088;2023-05-27T13:57:08;4.20;;;3.80;;
78563;SDS011;67856;47.754;19.088;2023-05-27T14:00:11;3.75;;;3.35;;
78563;SDS011;67856;47.754;19.088;2023-05-27T14:03:15;4.60;;;3.50;;
78563;SDS011;67856;47.754;19.088;2023-05-27T14:06:17;3.90;;;3.50;;
78563;SDS011;67856;47.754;19.088;2023-05-27T14:09:20;3.90;;;3.28;;
78563;SDS011;67856;47.754;19.088;2023-05-27T14:12:22;3.90;;;3.50;;
78563;SDS011;67856;47.754;19.088;2023-05-27T14:15:25;4.03;;;3.50;;
78563;SDS011;67856;47.754;19.088;2023-05-27T14:18:30;3.93;;;3.53;;
78563;SDS011;67856;47.754;19.088;2023-05-27T14:21:32;3.67;;;3.27;;
78563;SDS011;67856;47.754;19.088;2023-05-27T14:24:35;4.57;;;3.40;;
78563;SDS011;67856;47.754;19.088;2023-05-27T14:27:39;3.88;;;3.40;;
78563;SDS011;67856;47.754;19.088;2023-05-27T14:30:42;4.22;;;3.45;;
78563;SDS011;67856;47.754;19.088;2023-05-27T14:33:45;3.50;;;3.20;;
78563;SDS011;67856;47.754;19.088;2023-05-27T14:36:47;4.00;;;3.60;;
78563;SDS011;67856;47.754;19.088;2023-05-27T14:39:53;3.83;;;3.42;;
78563;SDS011;67856;47.754;19.088;2023-05-27T14:42:55;3.90;;;3.50;;
78563;SDS011;67856;47.754;19.088;2023-05-27T14:45:58;4.00;;;3.60;;
78563;SDS011;67856;47.754;19.088;2023-05-27T14:49:00;3.87;;;3.37;;
78563;SDS011;67856;47.754;19.088;2023-05-27T14:52:05;3.90;;;3.50;;
78563;SDS011;67856;47.754;19.088;2023-05-27T14:55:08;3.75;;;3.35;;
78563;SDS011;67856;47.754;19.088;2023-05-27T14:58:11;4.00;;;3.35;;
78563;SDS011;67856;47.754;19.088;2023-05-27T15:01:15;3.85;;;3.40;;
78563;SDS011;67856;47.754;19.088;2023-05-27T15:04:18;3.95;;;3.45;;
78563;SDS011;67856;47.754;19.088;2023-05-27T15:07:21;4.23;;;3.60;;
78563;SDS011;67856;47.754;19.088;2023-05-27T15:10:24;4.07;;;3.67;;
78563;SDS011;67856;47.754;19.088;2023-05-27T15:13:27;4.20;;;3.42;;
78563;SDS011;67856;47.754;19.088;2023-05-27T15:16:30;4.95;;;3.40;;
78563;SDS011;67856;47.754;19.088;2023-05-27T15:19:34;3.73;;;3.33;;
78563;SDS011;67856;47.754;19.088;2023-05-27T15:22:37;4.13;;;3.53;;
78563;SDS011;67856;47.754;19.088;2023-05-27T15:25:39;3.95;;;3.38;;
78563;SDS011;67856;47.754;19.088;2023-05-27T15:28:42;4.90;;;3.90;;
78563;SDS011;67856;47.754;19.088;2023-05-27T15:31:45;3.88;;;3.47;;
78563;SDS011;67856;47.754;19.088;2023-05-27T15:34:47;4.23;;;3.70;;
78563;SDS011;67856;47.754;19.088;2023-05-27T15:37:50;3.90;;;3.40;;
78563;SDS011;67856;47.754;19.088;2023-05-27T15:40:53;3.88;;;3.47;;
78563;SDS011;67856;47.754;19.088;2023-05-27T15:43:55;3.72;;;3.33;;
78563;SDS011;67856;47.754;19.088;2023-05-27T15:46:57;4.00;;;3.60;;
78563;SDS011;67856;47.754;19.088;2023-05-27T15:50:00;3.50;;;3.20;;
78563;SDS011;67856;47.754;19.088;2023-05-27T15:53:03;3.40;;;3.10;;
78563;SDS011;67856;47.754;19.088;2023-05-27T15:56:07;4.13;;;3.72;;
78563;SDS011;67856;47.754;19.088;2023-05-27T15:59:10;4.07;;;3.50;;
78563;SDS011;67856;47.754;19.088;2023-05-27T16:02:13;3.72;;;3.40;;
78563;SDS011;67856;47.754;19.088;2023-05-27T16:05:15;4.35;;;3.67;;
78563;SDS011;67856;47.754;19.088;2023-05-27T16:08:21;3.60;;;3.20;;
78563;SDS011;67856;47.754;19.088;2023-05-27T16:11:23;3.67;;;3.15;;
78563;SDS011;67856;47.754;19.088;2023-05-27T16:14:26;3.95;;;3.30;;
78563;SDS011;67856;47.754;19.088;2023-05-27T16:17:28;3.80;;;3.40;;
78563;SDS011;67856;47.754;19.088;2023-05-27T16:20:31;3.53;;;3.20;;
78563;SDS011;67856;47.754;19.088;2023-05-27T16:23:33;4.10;;;3.50;;
78563;SDS011;67856;47.754;19.088;2023-05-27T16:26:36;3.70;;;3.30;;
78563;SDS011;67856;47.754;19.088;2023-05-27T16:29:38;3.58;;;3.20;;
78563;SDS011;67856;47.754;19.088;2023-05-27T16:32:41;4.60;;;3.30;;
78563;SDS011;67856;47.754;19.088;2023-05-27T16:35:45;3.88;;;3.33;;
78563;SDS011;67856;47.754;19.088;2023-05-27T16:38:47;4.17;;;3.67;;
78563;SDS011;67856;47.754;19.088;2023-05-27T16:41:50;3.80;;;3.20;;
78563;SDS011;67856;47.754;19.088;2023-05-27T16:44:53;3.97;;;3.20;;
78563;SDS011;67856;47.754;19.088;2023-05-27T16:47:56;3.97;;;3.58;;
78563;SDS011;67856;47.754;19.088;2023-05-27T16:50:58;3.77;;;3.20;;
78563;SDS011;67856;47.754;19.088;2023-05-27T16:54:01;3.80;;;3.40;;
78563;SDS011;67856;47.754;19.088;2023-05-27T16:57:03;3.88;;;3.47;;
78563;SDS011;67856;47.754;19.088;2023-05-27T17:00:06;3.80;;;3.30;;
78563;SDS011;67856;47.754;19.088;2023-05-27T17:03:09;4.05;;;3.65;;
78563;SDS011;67856;47.754;19.088;2023-05-27T17:06:12;3.30;;;3.00;;
78563;SDS011;67856;47.754;19.088;2023-05-27T17:09:16;4.00;;;3.60;;
78563;SDS011;67856;47.754;19.088;2023-05-27T17:12:19;3.63;;;3.30;;
78563;SDS011;67856;47.754;19.088;2023-05-27T17:15:21;3.65;;;3.35;;
78563;SDS011;67856;47.754;19.088;2023-05-27T17:18:24;3.63;;;3.33;;
78563;SDS011;67856;47.754;19.088;2023-05-27T17:21:29;3.87;;;3.33;;
78563;SDS011;67856;47.754;19.088;2023-05-27T17:24:32;3.97;;;3.50;;
78563;SDS011;67856;47.754;19.088;2023-05-27T17:27:36;4.30;;;3.55;;
78563;SDS011;67856;47.754;19.088;2023-05-27T17:30:38;4.57;;;3.70;;
78563;SDS011;67856;47.754;19.088;2023-05-27T17:33:42;4.10;;;3.67;;
78563;SDS011;67856;47.754;19.088;2023-05-27T17:36:44;3.87;;;3.47;;
78563;SDS011;67856;47.754;19.088;2023-05-27T17:39:47;4.50;;;3.60;;
78563;SDS011;67856;47.754;19.088;2023-05-27T17:42:49;4.43;;;3.88;;
78563;SDS011;67856;47.754;19.088;2023-05-27T17:45:52;4.22;;;3.50;;
78563;SDS011;67856;47.754;19.088;2023-05-27T17:48:54;3.67;;;3.28;;
78563;SDS011;67856;47.754;19.088;2023-05-27T17:51:57;4.30;;;3.80;;
78563;SDS011;67856;47.754;19.088;2023-05-27T17:55:11;5.03;;;3.93;;
78563;SDS011;67856;47.754;19.088;2023-05-27T17:58:13;3.85;;;3.28;;
78563;SDS011;67856;47.754;19.088;2023-05-27T18:01:16;3.80;;;3.40;;
78563;SDS011;67856;47.754;19.088;2023-05-27T18:04:19;4.10;;;3.42;;
78563;SDS011;67856;47.754;19.088;2023-05-27T18:07:21;4.00;;;3.50;;
78563;SDS011;67856;47.754;19.088;2023-05-27T18:10:24;3.90;;;3.50;;
78563;SDS011;67856;47.754;19.088;2023-05-27T18:13:27;4.25;;;3.55;;
78563;SDS011;67856;47.754;19.088;2023-05-27T18:16:29;3.70;;;3.17;;